Tremont City, Ohio
Current Conditions -  °F | °C
As of 1:20 AM on Tuesday 21 Oct 2014 (Local Time) from KSGH Reporting Station
Haze Haze  
Wind Chill: 50°   Ceiling: 2900
Heat Index: 50°   Visibility: 3mi
Dew Point: 50°   Wind: 8mph
Humidity: 100%   Direction: 280°W
Pressure: 29.91"   Gusts: NA
Location:  40.01°N, 83.84°W
Report Text: KSGH 210520Z AUTO 28007KT 230V310 3SM BR SCT020 BKN029 BKN070 10/10 A2991 RMK AO2
Loading
Personal Weather Stations






























Interactive Weather Map
Tropical Storm Tracking
New forecast layout! Learn more

10-Day Weather Forecast

Advertisements
Track Severe Weather on mobile